Time;durP1;ratioP1;P1;durP2;ratioP2;P2;SDS_P1;SDS_P2;PMS_P1;PMS_P2;Temp;Humidity;BMP_temperature;BMP_pressure;BME280_temperature;BME280_humidity;BME280_pressure;Samples;Min_cycle;Max_cycle;Signal;HPM_P1;HPM_P2
2022/08/14 00:00:16;;;;;;;;;7.00;6.00;;;;;29.18;23.45;100490.72;5077922;28;45709;-71
2022/08/14 00:02:42;;;;;;;;;6.00;6.00;;;;;29.15;23.79;100482.00;5077278;28;47244;-71
2022/08/14 00:05:09;;;;;;;;;6.00;6.00;;;;;29.13;23.91;100478.63;5077536;28;45580;-71
2022/08/14 00:07:36;;;;;;;;;7.33;6.00;;;;;29.06;23.79;100467.53;5077548;28;45386;-71
2022/08/14 00:10:04;;;;;;;;;6.67;6.67;;;;;29.05;23.58;100463.91;5077294;28;45524;-71
2022/08/14 00:12:32;;;;;;;;;8.00;6.67;;;;;29.01;23.44;100461.78;5075857;28;47245;-71
2022/08/14 00:14:57;;;;;;;;;5.00;5.00;;;;;28.96;23.92;100453.28;5077144;28;45450;-71
2022/08/14 00:17:23;;;;;;;;;8.00;5.00;;;;;28.94;24.11;100456.22;5077191;28;45374;-71
2022/08/14 00:19:49;;;;;;;;;8.00;7.00;;;;;28.92;23.77;100454.72;5077560;28;45470;-71
2022/08/14 00:22:17;;;;;;;;;6.33;6.33;;;;;28.80;24.16;100440.66;5077463;28;45465;-71
2022/08/14 00:24:43;;;;;;;;;6.00;5.00;;;;;28.83;24.57;100452.09;5076925;28;45389;-71
2022/08/14 00:27:10;;;;;;;;;6.67;5.33;;;;;28.73;24.51;100432.34;5077018;28;45484;-71
2022/08/14 00:29:35;;;;;;;;;7.00;5.00;;;;;28.78;24.52;100440.00;5077368;28;45452;-71
2022/08/14 00:32:00;;;;;;;;;7.00;6.33;;;;;28.74;24.47;100444.16;5076993;28;47035;-71
2022/08/14 00:34:26;;;;;;;;;5.67;5.67;;;;;28.72;24.29;100427.06;5076562;28;45422;-71
2022/08/14 00:36:51;;;;;;;;;4.00;4.00;;;;;28.70;24.50;100429.97;5077244;28;45437;-71
2022/08/14 00:39:16;;;;;;;;;5.00;5.00;;;;;28.68;24.65;100423.00;5077041;28;45437;-71
2022/08/14 00:41:42;;;;;;;;;5.00;5.00;;;;;28.64;24.07;100427.19;5076615;28;45573;-71
2022/08/14 00:44:07;;;;;;;;;7.00;5.00;;;;;28.67;24.40;100424.03;5063663;28;45363;-71
2022/08/14 00:46:33;;;;;;;;;5.67;5.67;;;;;28.65;24.74;100423.38;5056609;28;45505;-71
2022/08/14 00:48:58;;;;;;;;;6.00;4.67;;;;;28.63;23.98;100431.78;5056922;28;45474;-71
2022/08/14 00:51:24;;;;;;;;;3.67;3.33;;;;;28.62;23.98;100427.38;5056163;28;46038;-71
2022/08/14 00:53:49;;;;;;;;;6.00;4.00;;;;;28.60;24.48;100424.81;5075823;28;45384;-71
2022/08/14 00:56:16;;;;;;;;;4.67;4.67;;;;;28.60;24.20;100429.44;5077000;28;45748;-71
2022/08/14 00:58:41;;;;;;;;;5.33;5.33;;;;;28.59;24.29;100419.53;5077137;28;45386;-71
2022/08/14 01:01:10;;;;;;;;;4.67;4.67;;;;;28.58;23.88;100413.19;5076149;28;46586;-71
2022/08/14 01:03:38;;;;;;;;;4.00;4.00;;;;;28.55;23.80;100412.72;5076843;28;45457;-71
2022/08/14 01:06:07;;;;;;;;;5.00;4.00;;;;;28.56;24.04;100408.94;5076491;28;45580;-71
2022/08/14 01:08:33;;;;;;;;;3.67;3.67;;;;;28.54;24.25;100405.53;5076518;28;45491;-71
2022/08/14 01:10:58;;;;;;;;;5.33;3.67;;;;;28.53;23.87;100399.19;5076519;28;45471;-71
2022/08/14 01:13:38;;;;;;;;;4.67;4.67;;;;;28.52;23.84;100400.25;5076363;28;45504;-71
2022/08/14 01:16:07;;;;;;;;;5.33;5.33;;;;;28.54;24.05;100387.22;5076616;28;45512;-71
2022/08/14 01:21:30;;;;;;;;;4.00;4.00;;;;;28.51;23.83;100364.78;5076054;28;45859;-71
2022/08/14 01:23:56;;;;;;;;;4.33;4.33;;;;;28.59;23.73;100381.97;5076525;28;45571;-81
2022/08/14 01:26:22;;;;;;;;;2.00;2.00;;;;;28.60;23.46;100375.44;5076718;28;45531;-81
2022/08/14 01:28:54;;;;;;;;;3.33;3.33;;;;;28.59;23.79;100370.16;5076786;28;45469;-81
2022/08/14 01:31:22;;;;;;;;;5.67;4.33;;;;;28.58;23.55;100366.56;5076137;28;46233;-80
2022/08/14 01:33:51;;;;;;;;;4.00;4.00;;;;;28.59;23.75;100378.41;5076201;28;45517;-81
2022/08/14 01:36:22;;;;;;;;;3.00;3.00;;;;;28.60;24.04;100372.69;5076019;28;45460;-81
2022/08/14 01:38:50;;;;;;;;;3.00;3.00;;;;;28.59;23.86;100378.41;5077299;28;45493;-81
2022/08/14 01:41:19;;;;;;;;;3.67;3.67;;;;;28.60;23.63;100380.09;5079340;27;47386;-81
2022/08/14 01:43:59;;;;;;;;;4.33;3.33;;;;;28.60;24.09;100385.56;5069907;28;45395;-81
2022/08/14 01:46:26;;;;;;;;;4.33;4.33;;;;;28.52;23.78;100375.56;5059250;28;45475;-81
2022/08/14 01:48:52;;;;;;;;;3.00;3.00;;;;;28.58;23.77;100382.16;5041860;28;45502;-81
2022/08/14 01:51:23;;;;;;;;;4.33;3.33;;;;;28.59;24.09;100383.88;5058849;28;46609;-81
2022/08/14 01:53:54;;;;;;;;;4.33;2.67;;;;;28.58;24.05;100379.44;5056168;28;45382;-81
2022/08/14 01:56:21;;;;;;;;;3.00;3.00;;;;;28.57;24.13;100381.31;5079686;28;45414;-81
2022/08/14 01:58:48;;;;;;;;;3.33;3.33;;;;;28.56;23.83;100374.13;5079606;28;45527;-81
2022/08/14 02:01:18;;;;;;;;;4.00;3.00;;;;;28.55;23.76;100372.44;5079206;28;46260;-81
2022/08/14 02:03:44;;;;;;;;;5.00;4.67;;;;;28.55;23.76;100380.66;5079204;28;45505;-81
2022/08/14 02:06:11;;;;;;;;;3.33;3.33;;;;;28.54;24.44;100373.50;5079068;28;45473;-81
2022/08/14 02:08:38;;;;;;;;;3.00;3.00;;;;;28.50;24.14;100366.69;5079515;28;45436;-81
2022/08/14 02:11:21;;;;;;;;;1.00;1.00;;;;;28.45;24.11;100357.28;5079018;28;47037;-81
2022/08/14 02:13:50;;;;;;;;;2.00;2.00;;;;;28.50;23.96;100365.84;5079160;28;45441;-81
2022/08/14 02:16:17;;;;;;;;;3.33;3.33;;;;;28.47;24.23;100355.25;5079174;28;45639;-81
2022/08/14 02:18:43;;;;;;;;;4.33;4.00;;;;;28.46;24.49;100350.78;5079514;28;45580;-81
2022/08/14 02:21:11;;;;;;;;;3.00;3.00;;;;;28.42;24.60;100351.19;5078667;28;47010;-81
2022/08/14 02:23:37;;;;;;;;;3.00;3.00;;;;;28.41;24.06;100337.66;5079100;28;45548;-71
2022/08/14 02:26:20;;;;;;;;;5.00;3.00;;;;;28.40;24.45;100333.19;5079040;28;45542;-71
2022/08/14 02:28:46;;;;;;;;;3.00;3.00;;;;;28.40;24.58;100328.59;5079300;28;45438;-71
2022/08/14 02:31:13;;;;;;;;;2.67;2.67;;;;;28.38;24.62;100332.56;5078756;28;46122;-71
2022/08/14 02:33:40;;;;;;;;;3.33;3.00;;;;;28.31;24.09;100316.03;5078872;28;45445;-71
2022/08/14 02:36:05;;;;;;;;;5.00;5.00;;;;;28.38;24.45;100327.94;5060752;28;45427;-71
2022/08/14 02:38:31;;;;;;;;;3.33;3.33;;;;;28.39;24.13;100320.56;5079196;28;45327;-71
2022/08/14 02:40:57;;;;;;;;;4.67;4.00;;;;;28.38;24.33;100318.88;5078410;28;46041;-71
2022/08/14 02:43:23;;;;;;;;;4.00;4.00;;;;;28.35;24.65;100308.28;5072000;28;45396;-71
2022/08/14 02:45:48;;;;;;;;;3.67;2.00;;;;;28.29;24.46;100293.47;5058618;28;45678;-71
2022/08/14 02:48:14;;;;;;;;;3.00;3.00;;;;;28.37;24.07;100315.25;5058777;28;45539;-71
2022/08/14 02:50:40;;;;;;;;;3.33;3.33;;;;;28.36;24.08;100315.47;5056710;28;46226;-71
2022/08/14 02:53:07;;;;;;;;;2.00;2.00;;;;;28.32;24.76;100309.50;5064622;28;45535;-71
2022/08/14 02:55:32;;;;;;;;;2.33;2.00;;;;;28.33;24.85;100308.47;5060631;28;45533;-71
2022/08/14 02:57:58;;;;;;;;;3.00;3.00;;;;;28.33;24.33;100304.88;5078854;28;45406;-71
2022/08/14 03:00:24;;;;;;;;;3.33;3.33;;;;;28.32;24.13;100298.53;5078357;28;46926;-71
2022/08/14 03:02:50;;;;;;;;;3.33;3.33;;;;;28.31;24.80;100301.50;5077100;28;45392;-71
2022/08/14 03:05:16;;;;;;;;;4.33;4.33;;;;;28.24;24.68;100297.81;5078275;28;45445;-71
2022/08/14 03:07:43;;;;;;;;;3.67;3.67;;;;;28.30;24.53;100303.38;5078978;28;45382;-71
2022/08/14 03:10:09;;;;;;;;;5.33;4.67;;;;;28.29;24.65;100309.06;5078346;28;45837;-71
2022/08/14 03:12:34;;;;;;;;;6.00;6.00;;;;;28.27;24.66;100309.25;5078020;28;45427;-71
2022/08/14 03:15:07;;;;;;;;;5.00;5.00;;;;;28.21;24.54;100301.78;5078372;28;45500;-71
2022/08/14 03:17:34;;;;;;;;;3.33;3.33;;;;;28.25;24.95;100311.31;5078385;28;45319;-71
2022/08/14 03:19:59;;;;;;;;;5.67;5.67;;;;;28.24;24.67;100311.50;5077730;28;46225;-71
2022/08/14 03:22:24;;;;;;;;;5.33;5.00;;;;;28.23;25.09;100310.66;5078187;28;45405;-71
2022/08/14 03:24:50;;;;;;;;;3.33;3.33;;;;;28.20;24.69;100309.16;5078101;28;45498;-71
2022/08/14 03:27:15;;;;;;;;;3.67;3.67;;;;;28.20;25.04;100306.41;5078390;28;45493;-71
2022/08/14 03:29:41;;;;;;;;;7.00;5.00;;;;;28.18;24.53;100303.03;5078034;28;45429;-71
2022/08/14 03:32:06;;;;;;;;;4.67;4.33;;;;;28.17;24.73;100298.59;5077537;28;45446;-71
2022/08/14 03:34:31;;;;;;;;;4.00;4.00;;;;;28.15;24.59;100303.41;5077833;28;45386;-71
2022/08/14 03:36:57;;;;;;;;;6.00;6.00;;;;;28.14;24.84;100299.00;5078351;28;45391;-71
2022/08/14 03:39:22;;;;;;;;;4.00;4.00;;;;;28.13;24.51;100294.53;5077805;28;46929;-71
2022/08/14 03:41:50;;;;;;;;;5.00;5.00;;;;;28.11;25.03;100293.88;5077623;28;45529;-71
2022/08/14 03:44:16;;;;;;;;;5.00;5.00;;;;;28.08;25.07;100296.16;5063645;28;45485;-71
2022/08/14 03:46:41;;;;;;;;;5.00;5.00;;;;;28.09;25.29;100303.34;5057553;28;45518;-71
2022/08/14 03:49:08;;;;;;;;;5.00;5.00;;;;;28.06;25.08;100301.81;5057521;28;46033;-71
2022/08/14 03:51:36;;;;;;;;;4.00;4.00;;;;;28.08;25.25;100310.72;5057272;28;45581;-71
2022/08/14 03:54:07;;;;;;;;;5.00;5.00;;;;;28.07;25.20;100311.72;5064668;28;45508;-71
2022/08/14 03:56:35;;;;;;;;;6.33;5.67;;;;;28.06;25.21;100314.69;5077952;28;45692;-71
2022/08/14 03:59:10;;;;;;;;;3.67;3.67;;;;;28.06;25.04;100318.28;5077335;28;47193;-71
2022/08/14 04:01:38;;;;;;;;;4.67;4.67;;;;;27.88;25.05;100293.16;5076897;28;45504;-71
2022/08/14 04:04:05;;;;;;;;;4.67;4.00;;;;;28.04;25.04;100327.72;5077540;28;45563;-71
2022/08/14 04:06:32;;;;;;;;;2.33;2.33;;;;;28.03;25.61;100337.00;5077855;28;45516;-71
2022/08/14 04:08:58;;;;;;;;;6.33;5.00;;;;;28.01;25.16;100333.59;5077253;28;47204;-71
2022/08/14 04:11:23;;;;;;;;;4.00;4.00;;;;;27.98;25.78;100330.19;5076971;28;45502;-71
2022/08/14 04:13:49;;;;;;;;;5.33;5.33;;;;;27.97;25.67;100333.97;5077220;28;45518;-71
2022/08/14 04:16:19;;;;;;;;;4.67;4.00;;;;;27.95;25.60;100330.56;5077561;28;45733;-71
2022/08/14 04:18:47;;;;;;;;;5.33;5.33;;;;;27.83;25.28;100320.25;5077127;28;45571;-71
2022/08/14 04:21:14;;;;;;;;;4.33;4.33;;;;;27.86;25.31;100328.13;5076946;28;45382;-71
2022/08/14 04:23:41;;;;;;;;;6.00;4.00;;;;;27.78;25.50;100309.88;5077215;28;45476;-71
2022/08/14 04:26:09;;;;;;;;;3.00;3.00;;;;;27.89;25.80;100314.91;5077142;28;45769;-71
2022/08/14 04:28:36;;;;;;;;;7.33;6.00;;;;;27.89;26.08;100314.91;5076992;28;47782;-70
2022/08/14 04:31:03;;;;;;;;;4.00;4.00;;;;;27.87;25.69;100321.63;5076831;28;45452;-71
2022/08/14 04:33:28;;;;;;;;;3.33;3.33;;;;;27.81;25.81;100317.69;5076994;28;45558;-71
2022/08/14 04:35:54;;;;;;;;;6.33;4.67;;;;;27.82;25.75;100330.38;5076960;28;45667;-71
2022/08/14 04:43:49;;;;;;;;;4.67;4.67;;;;;27.74;25.97;100314.88;5066701;28;45720;-71
2022/08/14 04:46:17;;;;;;;;;6.00;6.00;;;;;27.74;25.74;100314.03;5038647;28;45541;-71
2022/08/14 04:48:42;;;;;;;;;5.67;4.33;;;;;27.74;26.55;100297.59;5056137;28;46275;-71
2022/08/14 04:51:11;;;;;;;;;6.67;6.67;;;;;27.72;25.83;100294.19;5038371;28;45460;-71
2022/08/14 04:53:42;;;;;;;;;5.33;5.33;;;;;27.70;26.18;100291.66;5057845;28;45438;-71
2022/08/14 04:56:08;;;;;;;;;6.00;4.00;;;;;27.70;26.40;100293.56;5077043;28;45505;-71
2022/08/14 04:58:35;;;;;;;;;4.00;4.00;;;;;27.69;26.47;100280.88;5076712;28;45958;-71
2022/08/14 05:01:05;;;;;;;;;4.00;3.33;;;;;27.68;26.36;100281.94;5058084;28;45458;-71
2022/08/14 05:03:34;;;;;;;;;4.00;4.00;;;;;27.66;26.08;100278.53;5076859;28;45492;-71
2022/08/14 05:06:02;;;;;;;;;5.00;5.00;;;;;27.67;26.63;100274.75;5076906;28;45384;-71
2022/08/14 05:08:29;;;;;;;;;5.33;5.33;;;;;27.66;26.31;100270.31;5076387;28;46605;-71
2022/08/14 05:10:58;;;;;;;;;5.33;5.00;;;;;27.63;26.23;100254.25;5058381;28;45547;-71
2022/08/14 05:13:25;;;;;;;;;4.00;4.00;;;;;27.63;26.63;100266.06;5075681;28;45469;-71
2022/08/14 05:15:53;;;;;;;;;5.33;5.33;;;;;27.57;26.33;100243.03;5076418;28;45411;-71
2022/08/14 05:18:21;;;;;;;;;7.00;5.00;;;;;27.64;26.21;100254.06;5076568;28;45465;-71
2022/08/14 05:20:49;;;;;;;;;5.00;5.00;;;;;27.65;26.74;100263.13;5075972;28;45416;-71
2022/08/14 05:23:17;;;;;;;;;5.00;5.00;;;;;27.64;26.38;100277.88;5076447;28;45309;-71
2022/08/14 05:25:43;;;;;;;;;4.00;4.00;;;;;27.61;26.77;100275.53;5076869;28;45329;-71
2022/08/14 05:28:11;;;;;;;;;4.33;4.33;;;;;27.63;26.55;100270.69;5075994;28;46552;-71
2022/08/14 05:30:38;;;;;;;;;4.67;4.67;;;;;27.51;26.41;100271.19;5076019;28;45417;-71
2022/08/14 05:33:04;;;;;;;;;7.00;5.00;;;;;27.59;26.46;100292.13;5076027;28;45516;-71
2022/08/14 05:35:31;;;;;;;;;5.00;5.00;;;;;27.62;26.90;100285.41;5076547;28;45516;-71
2022/08/14 05:37:58;;;;;;;;;6.33;6.33;;;;;27.61;26.51;100283.75;5075893;28;47294;-71
2022/08/14 05:40:24;;;;;;;;;8.67;4.67;;;;;27.61;26.87;100286.47;5075956;28;45385;-71
2022/08/14 05:42:49;;;;;;;;;6.00;6.00;;;;;27.57;27.18;100294.22;5074044;28;45494;-71
2022/08/14 05:45:16;;;;;;;;;6.67;5.67;;;;;27.53;27.25;100282.78;5055616;28;45490;-71
2022/08/14 05:47:41;;;;;;;;;4.00;4.00;;;;;27.53;27.70;100281.91;5055754;28;47327;-71
2022/08/14 05:50:09;;;;;;;;;7.33;6.00;;;;;27.09;27.49;100204.25;5055492;28;45426;-71
2022/08/14 05:52:35;;;;;;;;;8.00;6.67;;;;;27.49;27.33;100256.81;5055709;28;45433;-71
2022/08/14 05:55:01;;;;;;;;;4.00;4.00;;;;;27.47;27.29;100256.16;5061151;28;45371;-71
2022/08/14 05:57:26;;;;;;;;;6.67;6.00;;;;;27.47;27.47;100249.84;5057411;28;45407;-71
2022/08/14 05:59:51;;;;;;;;;4.67;4.67;;;;;27.42;27.53;100242.22;5075701;28;45466;-70
2022/08/14 06:02:17;;;;;;;;;5.33;5.33;;;;;27.46;27.75;100259.94;5075978;28;45436;-71
2022/08/14 06:04:47;;;;;;;;;5.00;5.00;;;;;27.46;27.83;100251.72;5076448;28;45599;-71
2022/08/14 06:07:13;;;;;;;;;5.00;5.00;;;;;27.48;27.15;100246.06;5075568;28;46323;-71
2022/08/14 06:09:38;;;;;;;;;6.00;5.00;;;;;27.49;28.59;100261.47;5075750;28;45500;-71
2022/08/14 06:12:04;;;;;;;;;6.00;6.00;;;;;27.50;28.63;100243.97;5057497;28;46140;-71
2022/08/14 06:14:30;;;;;;;;;6.00;6.00;;;;;27.51;29.10;100265.72;5075864;28;45425;-71
2022/08/14 06:16:55;;;;;;;;;5.67;5.67;;;;;27.53;29.29;100280.06;5075585;28;46121;-71
2022/08/14 06:19:20;;;;;;;;;3.67;3.00;;;;;27.53;29.42;100244.47;5075499;28;45512;-71
2022/08/14 06:21:46;;;;;;;;;8.00;5.33;;;;;27.54;29.81;100240.69;5075554;28;45485;-71
2022/08/14 06:24:11;;;;;;;;;5.00;5.00;;;;;27.53;29.77;100271.84;5076068;28;45477;-71
2022/08/14 06:26:36;;;;;;;;;6.67;6.67;;;;;27.52;29.21;100248.22;5078817;28;45392;-71
2022/08/14 06:29:02;;;;;;;;;5.00;5.00;;;;;27.55;29.08;100252.47;5079033;28;45347;-71
2022/08/14 06:31:27;;;;;;;;;7.00;7.00;;;;;27.52;29.24;100245.50;5079098;28;45390;-71
2022/08/14 06:33:53;;;;;;;;;4.33;4.00;;;;;27.58;29.62;100255.69;5078994;28;45365;-71
2022/08/14 06:36:18;;;;;;;;;5.33;5.33;;;;;27.61;29.42;100246.25;5078820;28;47735;-71
2022/08/14 06:38:44;;;;;;;;;5.00;5.00;;;;;27.64;28.99;100256.81;5078916;28;45590;-71
2022/08/14 06:41:09;;;;;;;;;8.33;5.00;;;;;27.65;28.81;100250.31;5078375;28;46202;-71
2022/08/14 06:43:34;;;;;;;;;6.00;6.00;;;;;27.71;29.05;100256.91;5070718;28;45503;-71
2022/08/14 06:46:00;;;;;;;;;6.33;5.00;;;;;27.71;29.77;100255.00;5058220;28;53375;-71
2022/08/14 06:48:26;;;;;;;;;9.00;5.67;;;;;27.70;29.56;100242.38;5058238;28;45390;-71
2022/08/14 06:50:52;;;;;;;;;4.33;4.33;;;;;27.76;29.07;100259.91;5058607;28;45461;-71
2022/08/14 06:53:18;;;;;;;;;6.33;6.33;;;;;27.78;28.58;100268.78;5058608;28;45477;-71
2022/08/14 06:55:45;;;;;;;;;6.67;6.67;;;;;27.78;29.02;100275.09;5062162;28;46181;-71
2022/08/14 06:58:17;;;;;;;;;6.67;6.67;;;;;27.80;29.35;100277.66;5078636;28;45336;-71
2022/08/14 07:06:13;;;;;;;;;6.33;5.67;;;;;27.85;29.92;100269.75;5078405;28;45527;-71
2022/08/14 07:08:39;;;;;;;;;6.00;6.00;;;;;27.88;29.53;100276.72;5078161;28;45361;-71
2022/08/14 07:11:04;;;;;;;;;8.00;6.67;;;;;27.84;29.48;100273.53;5078317;28;45445;-71
2022/08/14 07:13:30;;;;;;;;;6.00;6.00;;;;;27.85;29.62;100263.44;5078652;28;45438;-71
2022/08/14 07:15:56;;;;;;;;;6.33;5.33;;;;;27.91;29.18;100285.44;5077838;28;46482;-71
2022/08/14 07:18:24;;;;;;;;;6.67;5.00;;;;;27.93;29.78;100277.88;5078229;28;45347;-71
2022/08/14 07:20:51;;;;;;;;;6.67;5.00;;;;;27.96;29.71;100271.16;5078267;28;45414;-71
2022/08/14 07:23:17;;;;;;;;;6.33;5.00;;;;;27.96;29.28;100266.53;5078348;28;45459;-71
2022/08/14 07:25:44;;;;;;;;;5.33;5.33;;;;;28.02;28.21;100278.59;5077434;28;46065;-71
2022/08/14 07:28:18;;;;;;;;;5.33;5.00;;;;;28.07;27.54;100284.34;5077795;28;46545;-71
2022/08/14 07:30:44;;;;;;;;;3.00;3.00;;;;;28.13;27.40;100285.47;5078082;28;45522;-71
2022/08/14 07:33:11;;;;;;;;;2.00;2.00;;;;;28.20;27.20;100281.75;5078346;28;45455;-71
2022/08/14 07:35:39;;;;;;;;;4.67;4.67;;;;;28.28;27.10;100282.69;5077835;28;48696;-71
2022/08/14 07:38:06;;;;;;;;;4.67;3.33;;;;;28.31;27.10;100277.66;5077109;28;45398;-71
2022/08/14 07:40:33;;;;;;;;;5.33;4.33;;;;;28.31;26.54;100279.56;5077469;28;45468;-71
2022/08/14 07:42:59;;;;;;;;;4.67;4.67;;;;;28.32;26.86;100275.78;5074870;28;45525;-71
2022/08/14 07:45:26;;;;;;;;;4.00;4.00;;;;;28.37;27.07;100278.78;5057272;28;47069;-71
2022/08/14 07:47:55;;;;;;;;;5.00;5.00;;;;;28.42;26.83;100290.00;5057490;28;45469;-71
2022/08/14 07:50:20;;;;;;;;;3.00;3.00;;;;;28.47;26.70;100294.94;5057680;28;45508;-71
2022/08/14 07:52:48;;;;;;;;;4.00;4.00;;;;;28.47;26.60;100275.72;5057460;28;45502;-71
2022/08/14 07:55:15;;;;;;;;;3.67;3.67;;;;;28.60;26.41;100279.47;5057199;28;45466;-71
2022/08/14 07:57:43;;;;;;;;;4.33;4.33;;;;;28.61;26.04;100274.81;5069912;28;45429;-71
2022/08/14 08:00:12;;;;;;;;;4.00;4.00;;;;;28.63;26.02;100264.50;5077476;28;45414;-71
2022/08/14 08:02:40;;;;;;;;;4.00;4.00;;;;;28.67;26.21;100251.25;5078013;28;45448;-71
2022/08/14 08:05:08;;;;;;;;;5.00;5.00;;;;;28.70;25.92;100257.19;5077147;28;46140;-70
2022/08/14 08:07:33;;;;;;;;;5.00;5.00;;;;;28.73;26.08;100255.94;5077164;28;45455;-71
2022/08/14 08:10:29;;;;;;;;;4.00;4.00;;;;;28.78;26.39;100264.44;5077292;28;45732;-71
2022/08/14 08:12:52;;;;;;;;;6.00;5.33;;;;;28.82;26.68;100266.59;5077502;28;45395;-71
2022/08/14 08:15:18;;;;;;;;;3.00;3.00;;;;;28.96;26.45;100272.16;5076999;28;46133;-71
2022/08/14 08:17:43;;;;;;;;;5.00;5.00;;;;;29.02;26.54;100268.63;5077327;28;45398;-71
2022/08/14 08:20:16;;;;;;;;;6.00;4.00;;;;;29.11;26.69;100261.16;5077254;28;45341;-71
2022/08/14 08:22:41;;;;;;;;;8.00;5.00;;;;;29.22;26.74;100272.41;5077163;28;45458;-71
2022/08/14 08:25:08;;;;;;;;;3.67;2.67;;;;;29.31;25.99;100280.47;5076947;28;45474;-71
2022/08/14 08:27:33;;;;;;;;;4.67;4.67;;;;;29.37;25.79;100272.28;5077292;28;45430;-71
2022/08/14 08:30:09;;;;;;;;;5.33;4.33;;;;;29.43;25.70;100271.50;5077301;28;45419;-71
2022/08/14 08:32:39;;;;;;;;;4.00;4.00;;;;;29.56;25.50;100269.88;5077490;28;45420;-71
2022/08/14 08:35:09;;;;;;;;;4.00;4.00;;;;;29.78;25.10;100271.50;5076691;28;47727;-71
2022/08/14 08:37:35;;;;;;;;;5.00;4.00;;;;;30.50;24.98;100263.69;5076783;28;45573;-71
2022/08/14 08:40:00;;;;;;;;;4.00;4.00;;;;;30.94;24.38;100277.94;5076942;28;45550;-71
2022/08/14 08:42:26;;;;;;;;;4.33;3.00;;;;;31.27;23.95;100278.72;5059051;28;45551;-73
2022/08/14 08:44:54;;;;;;;;;4.00;4.00;;;;;32.79;22.17;100267.28;5057638;28;45567;-72
2022/08/14 08:47:20;;;;;;;;;4.67;4.67;;;;;35.71;18.92;100267.09;5038581;28;45546;-72
2022/08/14 08:49:45;;;;;;;;;4.00;4.00;;;;;38.01;16.89;100275.72;5055658;28;45441;-71
2022/08/14 08:52:11;;;;;;;;;4.00;4.00;;;;;39.72;15.15;100274.13;5056783;28;45480;-72
2022/08/14 08:54:37;;;;;;;;;5.00;3.67;;;;;40.76;14.93;100274.13;5056198;28;45434;-72
2022/08/14 08:57:11;;;;;;;;;4.33;4.33;;;;;41.90;13.72;100268.88;5063501;28;45494;-70
2022/08/14 08:59:36;;;;;;;;;4.33;4.33;;;;;42.64;13.46;100280.22;5076976;28;45461;-70
2022/08/14 09:02:08;;;;;;;;;5.00;5.00;;;;;41.87;14.09;100269.44;5076966;28;45714;-71
2022/08/14 09:04:37;;;;;;;;;6.33;4.67;;;;;41.47;15.39;100267.63;5076474;28;46125;-70
2022/08/14 09:07:03;;;;;;;;;3.33;3.33;;;;;40.10;16.36;100258.91;5076151;28;45386;-70
2022/08/14 09:09:30;;;;;;;;;5.00;5.00;;;;;38.21;17.52;100267.59;5075388;28;45403;-70
2022/08/14 09:11:58;;;;;;;;;4.00;4.00;;;;;36.96;18.88;100256.97;5076580;28;45545;-70
2022/08/14 09:14:26;;;;;;;;;4.33;4.33;;;;;36.23;20.51;100247.63;5076374;28;45523;-70
2022/08/14 09:16:52;;;;;;;;;7.00;6.67;;;;;35.75;21.33;100251.63;5076295;28;45461;-70
2022/08/14 09:19:18;;;;;;;;;5.33;5.33;;;;;35.46;21.10;100248.78;5076386;28;45467;-70
2022/08/14 09:21:45;;;;;;;;;6.33;6.33;;;;;35.29;21.92;100259.78;5076518;28;45524;-70
2022/08/14 09:24:11;;;;;;;;;6.00;6.00;;;;;35.03;21.86;100257.47;5076182;28;46516;-70
2022/08/14 09:26:38;;;;;;;;;3.00;3.00;;;;;34.80;22.92;100250.00;5076324;28;45544;-70
2022/08/14 09:29:04;;;;;;;;;8.00;5.00;;;;;34.69;23.07;100248.88;5076190;28;45472;-70
2022/08/14 09:31:32;;;;;;;;;4.67;4.33;;;;;34.60;22.77;100217.06;5075353;28;45493;-70
2022/08/14 09:34:19;;;;;;;;;4.67;4.67;;;;;34.96;22.47;100240.09;5075938;28;46304;-70
2022/08/14 09:36:57;;;;;;;;;3.00;3.00;;;;;35.19;22.26;100237.38;5076043;28;45462;-70
2022/08/14 09:39:46;;;;;;;;;2.67;2.67;;;;;35.49;22.16;100241.91;5076285;28;45478;-70
2022/08/14 09:42:46;;;;;;;;;4.67;4.67;;;;;35.64;22.07;100249.75;5073609;28;45391;-70
2022/08/14 09:45:16;;;;;;;;;2.67;2.67;;;;;35.45;21.53;100258.19;5055732;28;46363;-70
2022/08/14 09:47:43;;;;;;;;;4.33;4.33;;;;;35.18;21.99;100241.22;5055785;28;45427;-70
2022/08/14 09:50:28;;;;;;;;;4.00;4.00;;;;;34.95;22.56;100252.28;5055492;28;45468;-70
2022/08/14 09:53:04;;;;;;;;;4.00;3.67;;;;;35.10;22.72;100252.66;5055884;28;45413;-70
2022/08/14 09:55:33;;;;;;;;;3.00;3.00;;;;;35.58;22.60;100253.47;5055564;28;46736;-70
2022/08/14 09:58:10;;;;;;;;;3.67;3.67;;;;;35.99;21.54;100257.97;5066382;28;45457;-70
2022/08/14 10:00:53;;;;;;;;;4.00;4.00;;;;;36.55;21.46;100255.44;5078162;27;45460;-70
2022/08/14 10:03:33;;;;;;;;;4.67;2.00;;;;;37.16;20.53;100253.69;5079679;27;45448;-70
2022/08/14 10:06:07;;;;;;;;;4.67;2.67;;;;;37.80;20.21;100253.19;5079283;27;47399;-70
2022/08/14 10:08:45;;;;;;;;;4.00;4.00;;;;;38.32;19.84;100242.66;5078915;28;45373;-70
2022/08/14 10:11:34;;;;;;;;;2.33;2.00;;;;;38.61;19.54;100244.06;5079446;27;45506;-71
2022/08/14 10:14:15;;;;;;;;;2.67;2.00;;;;;38.95;19.23;100242.97;5079459;28;45430;-71
2022/08/14 10:16:51;;;;;;;;;4.33;2.33;;;;;39.46;19.21;100244.13;5079195;27;46279;-71
2022/08/14 10:19:18;;;;;;;;;3.33;3.33;;;;;39.89;18.48;100235.69;5078742;27;45484;-70
2022/08/14 10:21:56;;;;;;;;;3.00;3.00;;;;;39.93;18.99;100234.03;5079210;28;45393;-70
2022/08/14 10:24:25;;;;;;;;;2.67;2.67;;;;;39.91;18.53;100233.47;5078259;28;45484;-70
2022/08/14 10:26:55;;;;;;;;;2.00;2.00;;;;;40.22;18.68;100230.72;5078904;28;46162;-70
2022/08/14 10:29:31;;;;;;;;;3.67;3.67;;;;;39.54;18.44;100223.25;5078829;27;45533;-71
2022/08/14 10:32:00;;;;;;;;;3.00;3.00;;;;;39.07;19.78;100231.63;5078954;27;45521;-71
2022/08/14 10:34:37;;;;;;;;;3.67;2.00;;;;;38.38;19.82;100225.72;5079075;27;45505;-70
2022/08/14 10:37:09;;;;;;;;;2.67;2.67;;;;;37.82;20.13;100235.41;5078701;28;47074;-70
2022/08/14 10:39:36;;;;;;;;;4.00;3.67;;;;;37.39;21.02;100241.50;5078815;27;45523;-70
2022/08/14 10:42:11;;;;;;;;;4.00;4.00;;;;;37.01;21.38;100238.69;5078388;28;45564;-70
2022/08/14 10:44:39;;;;;;;;;2.00;2.00;;;;;36.59;21.37;100231.63;5062118;28;45453;-70
2022/08/14 10:47:08;;;;;;;;;3.00;3.00;;;;;36.48;21.60;100243.63;5058104;28;46428;-70
2022/08/14 10:49:34;;;;;;;;;2.33;2.33;;;;;36.27;21.99;100231.31;5058338;28;45463;-70
2022/08/14 10:52:11;;;;;;;;;4.67;3.00;;;;;36.10;21.80;100248.75;5058392;28;45426;-70
2022/08/14 10:54:43;;;;;;;;;4.00;3.33;;;;;35.99;22.33;100251.56;5058578;28;45408;-70
2022/08/14 10:57:23;;;;;;;;;2.67;2.67;;;;;35.73;22.29;100248.28;5058103;28;46446;-70
2022/08/14 11:00:12;;;;;;;;;3.67;3.67;;;;;35.53;22.41;100248.66;5053737;28;45457;-70
2022/08/14 11:02:38;;;;;;;;;4.00;4.00;;;;;35.26;23.34;100254.72;5078090;28;45776;-70
2022/08/14 11:05:17;;;;;;;;;3.00;3.00;;;;;34.94;22.86;100254.22;5060818;28;45608;-70
2022/08/14 11:07:54;;;;;;;;;3.00;2.00;;;;;34.80;23.28;100261.06;5078265;28;46964;-70
2022/08/14 11:10:22;;;;;;;;;3.67;3.67;;;;;34.63;23.25;100261.75;5078208;28;45451;-70
2022/08/14 11:12:49;;;;;;;;;3.67;3.67;;;;;34.49;23.74;100254.72;5077180;28;45530;-70
2022/08/14 11:15:19;;;;;;;;;5.00;5.00;;;;;34.38;23.96;100261.06;5078545;28;45458;-70
2022/08/14 11:17:46;;;;;;;;;7.33;5.00;;;;;34.21;24.22;100252.59;5077960;28;46320;-70
2022/08/14 11:20:12;;;;;;;;;5.33;5.00;;;;;34.06;24.20;100256.56;5078028;28;45387;-70
2022/08/14 11:22:40;;;;;;;;;7.67;7.67;;;;;34.00;24.48;100264.97;5078188;28;45441;-70
2022/08/14 11:25:08;;;;;;;;;6.00;6.00;;;;;33.85;24.03;100266.19;5078347;28;45722;-70
2022/08/14 11:27:34;;;;;;;;;9.00;7.00;;;;;33.73;24.81;100268.06;5078055;28;46484;-70
2022/08/14 11:30:03;;;;;;;;;8.00;7.67;;;;;33.56;24.97;100255.91;5077928;28;45409;-73
2022/08/14 11:32:29;;;;;;;;;10.00;8.00;;;;;33.43;25.15;100252.25;5077679;28;45551;-70
2022/08/14 11:34:56;;;;;;;;;5.33;5.33;;;;;33.39;25.20;100272.28;5078393;28;45379;-70
2022/08/14 11:37:21;;;;;;;;;7.67;7.67;;;;;33.29;25.24;100271.94;5077804;28;47123;-73
2022/08/14 11:39:47;;;;;;;;;11.67;11.00;;;;;33.26;25.80;100272.41;5059254;28;45487;-70
2022/08/14 11:42:22;;;;;;;;;7.67;7.67;;;;;33.18;25.61;100263.34;5077448;28;45491;-70